createdAt,value
2023-03-06T00:01:24.855Z,6.22
2023-03-06T00:04:28.339Z,6.65
2023-03-06T00:07:31.518Z,8.57
2023-03-06T00:10:35.289Z,8.55
2023-03-06T00:13:38.955Z,11.70
2023-03-06T00:16:42.390Z,10.00
2023-03-06T00:19:45.623Z,7.30
2023-03-06T00:22:49.649Z,5.35
2023-03-06T00:25:52.825Z,4.75
2023-03-06T00:28:56.448Z,4.57
2023-03-06T00:31:59.941Z,5.05
2023-03-06T00:35:03.596Z,5.22
2023-03-06T00:38:07.369Z,5.80
2023-03-06T00:41:13.814Z,7.07
2023-03-06T00:44:17.079Z,6.37
2023-03-06T00:47:21.818Z,7.85
2023-03-06T00:50:24.996Z,5.33
2023-03-06T00:53:29.521Z,6.22
2023-03-06T00:56:32.588Z,5.93
2023-03-06T00:59:36.036Z,5.90
2023-03-06T01:02:39.545Z,6.07
2023-03-06T01:05:43.254Z,5.35
2023-03-06T01:08:47.092Z,4.75
2023-03-06T01:11:50.646Z,5.37
2023-03-06T01:14:53.825Z,4.72
2023-03-06T01:17:57.477Z,5.28
2023-03-06T01:21:00.654Z,4.50
2023-03-06T01:24:04.297Z,4.75
2023-03-06T01:27:07.680Z,4.60
2023-03-06T01:30:12.500Z,4.43
2023-03-06T01:33:16.318Z,4.35
2023-03-06T01:36:21.030Z,4.35
2023-03-06T01:39:24.458Z,5.43
2023-03-06T01:42:28.715Z,4.68
2023-03-06T01:45:35.090Z,4.80
2023-03-06T01:48:40.076Z,4.97
2023-03-06T01:52:05.991Z,4.87
2023-03-06T01:55:16.102Z,4.37
2023-03-06T01:58:20.210Z,4.55
2023-03-06T02:01:23.895Z,5.60
2023-03-06T02:04:29.424Z,5.00
2023-03-06T02:07:34.639Z,5.45
2023-03-06T02:10:38.093Z,5.03
2023-03-06T02:13:42.218Z,4.95
2023-03-06T02:16:45.793Z,5.37
2023-03-06T02:20:02.625Z,6.07
2023-03-06T02:23:24.754Z,6.03
2023-03-06T02:26:29.841Z,5.68
2023-03-06T02:29:33.778Z,5.00
2023-03-06T02:32:37.521Z,5.07
2023-03-06T02:35:46.985Z,4.87
2023-03-06T02:38:51.615Z,4.82
2023-03-06T02:41:55.921Z,4.70
2023-03-06T02:45:02.447Z,5.25
2023-03-06T02:48:06.959Z,4.82
2023-03-06T02:51:10.072Z,4.12
2023-03-06T02:54:13.479Z,4.90
2023-03-06T02:57:18.669Z,4.43
2023-03-06T03:00:23.686Z,4.07
2023-03-06T03:03:26.857Z,4.40
2023-03-06T03:06:31.791Z,4.10
2023-03-06T03:09:37.102Z,4.18
2023-03-06T03:12:42.750Z,4.68
2023-03-06T03:15:46.196Z,3.58
2023-03-06T03:18:51.193Z,3.83
2023-03-06T03:21:54.972Z,3.65
2023-03-06T03:24:59.012Z,3.97
2023-03-06T03:28:02.818Z,3.70
2023-03-06T03:31:09.136Z,3.80
2023-03-06T03:34:12.623Z,4.33
2023-03-06T03:37:16.727Z,3.83
2023-03-06T03:40:20.091Z,4.78
2023-03-06T03:43:25.221Z,3.62
2023-03-06T03:46:28.540Z,4.28
2023-03-06T03:49:32.179Z,3.85
2023-03-06T03:52:35.465Z,4.05
2023-03-06T03:55:39.511Z,3.77
2023-03-06T03:58:43.085Z,3.80
2023-03-06T04:01:47.190Z,4.50
2023-03-06T04:04:51.775Z,4.00
2023-03-06T04:07:56.625Z,4.57
2023-03-06T04:11:00.543Z,4.47
2023-03-06T04:14:05.725Z,4.43
2023-03-06T04:17:10.560Z,4.62
2023-03-06T04:20:15.075Z,4.50
2023-03-06T04:23:21.349Z,4.30
2023-03-06T04:26:24.487Z,4.50
2023-03-06T04:29:28.598Z,5.00
2023-03-06T04:32:32.237Z,4.72
2023-03-06T04:35:36.404Z,4.70
2023-03-06T04:38:40.025Z,4.68
2023-03-06T04:41:43.981Z,4.97
2023-03-06T04:44:47.211Z,5.18
2023-03-06T04:47:50.698Z,4.70
2023-03-06T04:50:53.948Z,4.53
2023-03-06T04:53:57.535Z,3.60
2023-03-06T04:57:00.824Z,3.23
2023-03-06T05:00:06.990Z,3.97
2023-03-06T05:03:12.388Z,3.97
2023-03-06T05:06:16.114Z,4.13
2023-03-06T05:09:19.640Z,4.35
2023-03-06T05:15:47.515Z,5.25
2023-03-06T05:18:51.264Z,5.03
2023-03-06T05:21:57.365Z,5.30
2023-03-06T05:25:01.009Z,4.40
2023-03-06T05:28:04.310Z,4.87
2023-03-06T05:31:08.063Z,5.37
2023-03-06T05:34:15.463Z,3.22
2023-03-06T05:37:18.939Z,4.83
2023-03-06T05:40:22.680Z,4.97
2023-03-06T05:43:26.163Z,2.75
2023-03-06T05:46:29.391Z,4.55
2023-03-06T05:49:35.714Z,5.30
2023-03-06T05:52:40.050Z,5.40
2023-03-06T05:55:43.580Z,3.92
2023-03-06T05:58:46.974Z,4.20
2023-03-06T06:01:50.412Z,5.70
2023-03-06T06:04:56.086Z,6.32
2023-03-06T06:08:02.564Z,3.63
2023-03-06T06:11:07.517Z,5.85
2023-03-06T06:14:10.995Z,6.78
2023-03-06T06:17:14.689Z,6.62
2023-03-06T06:20:18.958Z,7.28
2023-03-06T06:23:22.722Z,6.10
2023-03-06T06:26:26.394Z,5.80
2023-03-06T06:29:30.224Z,6.00
2023-03-06T06:32:33.711Z,5.50
2023-03-06T06:35:37.439Z,6.05
2023-03-06T06:38:40.715Z,6.63
2023-03-06T06:42:02.365Z,5.97
2023-03-06T06:45:11.744Z,5.57
2023-03-06T06:48:17.879Z,6.70
2023-03-06T06:51:23.421Z,5.57
2023-03-06T06:54:28.518Z,6.43
2023-03-06T06:57:31.862Z,6.20
2023-03-06T07:00:35.254Z,8.03
2023-03-06T07:03:39.657Z,8.40
2023-03-06T07:06:43.544Z,6.87
2023-03-06T07:09:47.062Z,7.80
2023-03-06T07:12:50.729Z,7.87
2023-03-06T07:15:54.240Z,8.93
2023-03-06T07:18:57.704Z,7.15
2023-03-06T07:22:00.882Z,7.40
2023-03-06T07:25:06.382Z,8.27
2023-03-06T07:28:09.439Z,6.72
2023-03-06T07:31:13.133Z,7.20
2023-03-06T07:34:16.817Z,7.97
2023-03-06T07:37:20.568Z,6.90
2023-03-06T07:40:24.595Z,7.43
2023-03-06T07:43:28.198Z,7.97
2023-03-06T07:46:33.032Z,8.15
2023-03-06T07:49:38.061Z,8.60
2023-03-06T07:52:41.861Z,9.15
2023-03-06T07:55:45.700Z,13.00
2023-03-06T07:58:49.232Z,9.43
2023-03-06T08:01:55.562Z,8.10
2023-03-06T08:04:59.033Z,8.88
2023-03-06T08:08:02.371Z,8.00
2023-03-06T08:11:06.869Z,7.67
2023-03-06T08:14:10.266Z,7.00
2023-03-06T08:17:13.969Z,8.40
2023-03-06T08:20:18.683Z,8.25
2023-03-06T08:23:21.976Z,7.18
2023-03-06T08:26:27.674Z,8.32
2023-03-06T08:29:32.336Z,8.07
2023-03-06T08:32:38.727Z,9.47
2023-03-06T08:35:42.298Z,7.45
2023-03-06T08:38:45.546Z,9.35
2023-03-06T08:41:48.989Z,7.73
2023-03-06T08:44:52.191Z,7.40
2023-03-06T08:47:55.648Z,7.87
2023-03-06T08:50:59.791Z,8.10
2023-03-06T08:54:03.565Z,7.80
2023-03-06T08:57:07.197Z,8.05
2023-03-06T09:00:11.325Z,7.50
2023-03-06T09:03:14.820Z,8.77
2023-03-06T09:06:18.285Z,8.20
2023-03-06T09:09:21.484Z,7.45
2023-03-06T09:12:25.676Z,8.27
2023-03-06T09:15:29.178Z,8.75
2023-03-06T09:18:33.340Z,8.05
2023-03-06T09:21:36.494Z,8.90
2023-03-06T09:24:39.978Z,7.95
2023-03-06T09:27:43.092Z,8.05
2023-03-06T09:30:46.570Z,7.87
2023-03-06T09:33:50.087Z,7.47
2023-03-06T09:36:57.238Z,7.18
2023-03-06T09:40:00.708Z,8.88
2023-03-06T09:43:04.980Z,7.83
2023-03-06T09:46:14.185Z,8.15
2023-03-06T09:49:55.511Z,7.43
2023-03-06T09:53:17.423Z,7.50
2023-03-06T09:56:23.708Z,9.50
2023-03-06T09:59:28.794Z,8.77
2023-03-06T10:02:54.373Z,8.45
2023-03-06T10:06:04.704Z,8.57
2023-03-06T10:09:13.443Z,8.18
2023-03-06T10:12:39.053Z,8.20
2023-03-06T10:15:45.247Z,8.27
2023-03-06T10:18:48.670Z,8.38
2023-03-06T10:23:00.795Z,8.50
2023-03-06T10:26:19.726Z,8.00
2023-03-06T10:30:02.277Z,7.28
2023-03-06T10:33:23.078Z,8.93
2023-03-06T10:36:27.992Z,7.97
2023-03-06T10:39:31.675Z,8.27
2023-03-06T10:42:34.794Z,8.25
2023-03-06T10:45:49.768Z,8.40
2023-03-06T10:48:59.057Z,8.53
2023-03-06T10:52:07.041Z,8.40
2023-03-06T10:55:31.868Z,7.30
2023-03-06T10:58:35.450Z,7.32
2023-03-06T11:01:40.944Z,8.45
2023-03-06T11:04:47.488Z,7.87
2023-03-06T11:07:56.352Z,7.35
2023-03-06T11:11:06.432Z,7.83
2023-03-06T11:14:27.602Z,7.75
2023-03-06T11:17:32.273Z,7.68
2023-03-06T11:20:52.610Z,8.97
2023-03-06T11:24:03.505Z,8.90
2023-03-06T11:27:34.489Z,7.68
2023-03-06T11:30:52.650Z,7.85
2023-03-06T11:34:08.404Z,8.10
2023-03-06T11:37:37.267Z,8.77
2023-03-06T11:40:46.311Z,8.65
2023-03-06T11:44:22.094Z,9.20
2023-03-06T11:47:44.931Z,8.85
2023-03-06T11:50:53.377Z,8.68
2023-03-06T11:54:00.210Z,8.45
2023-03-06T11:57:11.583Z,8.27
2023-03-06T12:00:47.449Z,8.10
2023-03-06T12:04:03.296Z,7.45
2023-03-06T12:07:36.058Z,8.20
2023-03-06T12:10:51.794Z,7.07
2023-03-06T12:13:55.359Z,7.82
2023-03-06T12:17:06.985Z,7.62
2023-03-06T12:20:34.746Z,7.83
2023-03-06T12:23:59.902Z,7.57
2023-03-06T12:27:20.170Z,7.00
2023-03-06T12:30:57.181Z,7.25
2023-03-06T12:34:07.098Z,8.35
2023-03-06T12:37:36.367Z,7.28
2023-03-06T12:41:15.893Z,7.35
2023-03-06T12:44:27.989Z,8.67
2023-03-06T12:47:38.954Z,6.68
2023-03-06T12:50:45.884Z,7.60
2023-03-06T12:53:51.501Z,8.40
2023-03-06T12:56:57.373Z,8.38
2023-03-06T13:00:00.557Z,8.02
2023-03-06T13:03:51.302Z,7.70
2023-03-06T13:07:09.966Z,6.95
2023-03-06T13:10:26.771Z,8.23
2023-03-06T13:13:33.370Z,8.13
2023-03-06T13:16:37.361Z,7.80
2023-03-06T13:19:40.666Z,8.05
2023-03-06T13:22:46.712Z,8.40
2023-03-06T13:25:50.951Z,7.40
2023-03-06T13:28:57.882Z,7.90
2023-03-06T13:32:01.535Z,7.80
2023-03-06T13:35:34.693Z,7.62
2023-03-06T13:38:41.800Z,7.62
2023-03-06T13:41:59.304Z,8.35
2023-03-06T13:45:15.074Z,7.78
2023-03-06T13:48:43.817Z,8.20
2023-03-06T13:52:10.984Z,8.80
2023-03-06T13:55:41.298Z,8.05
2023-03-06T13:59:15.408Z,7.20
2023-03-06T14:02:24.988Z,7.10
2023-03-06T14:05:54.948Z,8.18
2023-03-06T14:08:59.372Z,7.22
2023-03-06T14:12:37.203Z,8.23
2023-03-06T14:15:40.300Z,7.70
2023-03-06T14:18:48.300Z,7.18
2023-03-06T14:21:57.274Z,7.93
2023-03-06T14:25:08.101Z,8.63
2023-03-06T14:28:29.273Z,8.32
2023-03-06T14:31:42.730Z,9.02
2023-03-06T14:34:47.750Z,7.68
2023-03-06T14:37:55.780Z,8.85
2023-03-06T14:40:59.202Z,8.32
2023-03-06T14:44:18.356Z,8.43
2023-03-06T14:47:27.605Z,8.68
2023-03-06T14:50:34.361Z,7.57
2023-03-06T14:53:38.009Z,8.37
2023-03-06T14:56:43.292Z,8.30
2023-03-06T15:00:00.250Z,10.20
2023-03-06T15:03:07.846Z,9.13
2023-03-06T15:06:17.808Z,9.23
2023-03-06T15:09:25.489Z,8.40
2023-03-06T15:12:34.135Z,8.27
2023-03-06T15:15:37.760Z,10.63
2023-03-06T15:18:55.789Z,9.43
2023-03-06T15:22:01.474Z,8.73
2023-03-06T15:25:19.942Z,9.10
2023-03-06T15:28:26.107Z,9.40
2023-03-06T15:31:31.988Z,9.02
2023-03-06T15:34:35.605Z,8.85
2023-03-06T15:37:38.874Z,8.50
2023-03-06T15:40:56.001Z,8.50
2023-03-06T15:44:01.503Z,9.27
2023-03-06T15:47:09.189Z,8.30
2023-03-06T15:50:24.992Z,8.65
2023-03-06T15:53:28.702Z,9.38
2023-03-06T15:56:35.375Z,10.53
2023-03-06T15:59:44.404Z,9.95
2023-03-06T16:02:47.881Z,9.20
2023-03-06T16:05:51.500Z,11.30
2023-03-06T16:08:54.970Z,10.98
2023-03-06T16:11:59.601Z,9.98
2023-03-06T16:15:03.466Z,9.65
2023-03-06T16:18:10.516Z,11.60
2023-03-06T16:21:14.938Z,12.05
2023-03-06T16:24:19.312Z,14.52
2023-03-06T16:27:26.071Z,11.93
2023-03-06T16:30:31.599Z,10.70
2023-03-06T16:33:35.405Z,12.10
2023-03-06T16:36:39.368Z,12.30
2023-03-06T16:39:43.375Z,10.88
2023-03-06T16:42:48.604Z,11.55
2023-03-06T16:45:52.776Z,11.07
2023-03-06T16:48:57.112Z,10.73
2023-03-06T16:52:01.241Z,12.52
2023-03-06T16:55:05.167Z,14.35
2023-03-06T16:58:08.840Z,15.67
2023-03-06T17:01:16.605Z,21.15
2023-03-06T17:04:20.170Z,38.88
2023-03-06T17:07:23.669Z,23.40
2023-03-06T17:10:27.845Z,16.95
2023-03-06T17:13:31.867Z,14.63
2023-03-06T17:16:39.394Z,13.20
2023-03-06T17:19:47.446Z,15.87
2023-03-06T17:22:51.032Z,25.35
2023-03-06T17:26:07.254Z,17.67
2023-03-06T17:29:12.518Z,12.57
2023-03-06T17:32:16.460Z,12.27
2023-03-06T17:35:20.541Z,13.98
2023-03-06T17:38:26.403Z,16.77
2023-03-06T17:41:33.160Z,15.15
2023-03-06T17:44:38.351Z,13.62
2023-03-06T17:47:44.697Z,12.75
2023-03-06T17:50:57.785Z,13.20
2023-03-06T17:54:02.158Z,13.40
2023-03-06T17:57:07.450Z,13.60
2023-03-06T18:00:12.086Z,12.43
2023-03-06T18:03:16.476Z,13.60
2023-03-06T18:06:22.795Z,11.90
2023-03-06T18:09:26.602Z,13.20
2023-03-06T18:12:32.031Z,11.40
2023-03-06T18:15:41.009Z,13.10
2023-03-06T18:18:45.352Z,13.52
2023-03-06T18:21:49.713Z,12.77
2023-03-06T18:24:54.969Z,12.93
2023-03-06T18:27:59.671Z,12.75
2023-03-06T18:31:19.369Z,11.20
2023-03-06T18:34:23.444Z,11.98
2023-03-06T18:37:29.931Z,13.07
2023-03-06T18:40:34.901Z,13.52
2023-03-06T18:43:40.366Z,14.38
2023-03-06T18:46:46.101Z,14.20
2023-03-06T18:49:52.032Z,14.07
2023-03-06T18:52:56.618Z,14.17
2023-03-06T18:56:04.125Z,13.77
2023-03-06T18:59:11.073Z,13.05
2023-03-06T19:02:16.696Z,15.77
2023-03-06T19:05:23.978Z,14.80
2023-03-06T19:08:29.212Z,15.02
2023-03-06T19:11:35.881Z,16.48
2023-03-06T19:14:43.130Z,17.62
2023-03-06T19:17:50.364Z,18.05
2023-03-06T19:20:57.156Z,18.00
2023-03-06T19:24:04.109Z,18.27
2023-03-06T19:27:09.684Z,18.70
2023-03-06T19:30:15.235Z,17.40
2023-03-06T19:33:23.829Z,17.93
2023-03-06T19:36:33.648Z,18.00
2023-03-06T19:39:40.267Z,17.55
2023-03-06T19:42:45.871Z,18.35
2023-03-06T19:45:52.821Z,19.40
2023-03-06T19:49:03.166Z,21.15
2023-03-06T19:52:08.252Z,28.42
2023-03-06T19:55:12.375Z,28.53
2023-03-06T19:58:17.516Z,31.83
2023-03-06T20:01:23.625Z,30.83
2023-03-06T20:04:35.035Z,28.20
2023-03-06T20:07:39.168Z,27.60
2023-03-06T20:10:44.163Z,24.50
2023-03-06T20:13:50.124Z,26.85
2023-03-06T20:16:54.844Z,22.65
2023-03-06T20:20:00.851Z,23.10
2023-03-06T20:23:06.502Z,23.60
2023-03-06T20:26:13.284Z,23.73
2023-03-06T20:29:19.343Z,24.40
2023-03-06T20:32:25.307Z,23.95
2023-03-06T20:35:30.718Z,26.37
2023-03-06T20:38:34.873Z,27.95
2023-03-06T20:41:40.612Z,27.77
2023-03-06T20:44:45.004Z,28.10
2023-03-06T20:47:50.945Z,24.12
2023-03-06T20:51:18.566Z,29.35
2023-03-06T20:54:23.651Z,35.30
2023-03-06T20:57:31.328Z,32.73
2023-03-06T21:00:35.056Z,31.55
2023-03-06T21:03:39.852Z,30.45
2023-03-06T21:06:47.335Z,30.03
2023-03-06T21:09:52.511Z,28.23
2023-03-06T21:12:57.775Z,26.02
2023-03-06T21:16:07.116Z,26.42
2023-03-06T21:19:12.149Z,26.75
2023-03-06T21:22:16.754Z,27.15
2023-03-06T21:25:21.246Z,28.83
2023-03-06T21:28:25.062Z,26.97
2023-03-06T21:31:31.652Z,28.35
2023-03-06T21:34:35.353Z,33.88
2023-03-06T21:37:38.865Z,31.87
2023-03-06T21:40:42.913Z,31.02
2023-03-06T21:43:46.821Z,34.88
2023-03-06T21:46:50.237Z,34.30
2023-03-06T21:49:53.781Z,34.45
2023-03-06T21:52:57.614Z,36.55
2023-03-06T21:56:01.944Z,34.95
2023-03-06T21:59:05.187Z,32.17
2023-03-06T22:02:10.740Z,33.65
2023-03-06T22:05:14.538Z,32.70
2023-03-06T22:08:21.347Z,31.23
2023-03-06T22:11:26.411Z,28.48
2023-03-06T22:14:30.003Z,27.65
2023-03-06T22:17:33.529Z,27.00
2023-03-06T22:20:39.649Z,26.48
2023-03-06T22:23:43.512Z,26.52
2023-03-06T22:26:46.741Z,25.73
2023-03-06T22:29:50.305Z,26.10
2023-03-06T22:32:53.670Z,24.33
2023-03-06T22:36:08.113Z,24.02
2023-03-06T22:39:13.619Z,22.57
2023-03-06T22:42:17.384Z,22.20
2023-03-06T22:45:20.512Z,23.00
2023-03-06T22:48:23.959Z,24.15
2023-03-06T22:51:29.521Z,22.23
2023-03-06T22:54:34.437Z,23.73
2023-03-06T22:57:37.526Z,22.37
2023-03-06T23:00:42.164Z,22.07
2023-03-06T23:03:51.616Z,22.10
2023-03-06T23:06:55.119Z,20.50
2023-03-06T23:09:58.949Z,19.63
2023-03-06T23:13:20.379Z,19.73
2023-03-06T23:16:41.666Z,19.67
2023-03-06T23:20:10.135Z,19.30
2023-03-06T23:23:31.651Z,19.77
2023-03-06T23:26:36.186Z,18.65
2023-03-06T23:29:39.836Z,19.20
2023-03-06T23:32:46.013Z,18.77
2023-03-06T23:35:50.260Z,20.55
2023-03-06T23:38:53.715Z,21.85
2023-03-06T23:41:57.221Z,20.33
2023-03-06T23:45:00.795Z,20.15
2023-03-06T23:48:07.356Z,19.87
2023-03-06T23:51:17.810Z,20.67
2023-03-06T23:54:21.177Z,20.33
2023-03-06T23:57:25.489Z,21.23
